Time;durP1;ratioP1;P1;durP2;ratioP2;P2;SDS_P1;SDS_P2;PMS_P1;PMS_P2;Temp;Humidity;BMP_temperature;BMP_pressure;BME280_temperature;BME280_humidity;BME280_pressure;Samples;Min_cycle;Max_cycle;Signal;HPM_P1;HPM_P2
2022/04/08 00:00:49;;;;;;;1.33;0.47;;;;;;;2.81;100.00;97910.72;5032117;28;20078;-84
2022/04/08 00:03:14;;;;;;;7.30;0.60;;;;;;;2.80;100.00;97914.34;4999391;28;20029;-85
2022/04/08 00:05:39;;;;;;;5.93;1.33;;;;;;;2.82;100.00;97912.34;5015748;28;20048;-85
2022/04/08 00:08:05;;;;;;;1.83;0.50;;;;;;;2.86;100.00;97929.44;5015696;28;20029;-84
2022/04/08 00:10:30;;;;;;;4.32;0.68;;;;;;;2.78;100.00;97911.06;4999223;28;20033;-84
2022/04/08 00:12:57;;;;;;;2.73;0.67;;;;;;;2.82;100.00;97917.63;4998039;28;20656;-85
2022/04/08 00:15:22;;;;;;;0.73;0.40;;;;;;;2.81;100.00;97917.78;4998699;28;20037;-85
2022/04/08 00:17:49;;;;;;;3.15;0.60;;;;;;;2.77;100.00;97922.63;4999852;28;20030;-85
2022/04/08 00:20:14;;;;;;;5.87;1.47;;;;;;;2.77;100.00;97934.97;5027432;28;20029;-84
2022/04/08 00:22:40;;;;;;;6.30;0.50;;;;;;;2.77;100.00;97941.06;4998184;28;21171;-85
2022/04/08 00:25:10;;;;;;;2.83;0.93;;;;;;;2.69;100.00;97938.50;5013942;28;20042;-85
2022/04/08 00:27:35;;;;;;;1.67;0.52;;;;;;;2.77;100.00;97956.88;5031696;28;20083;-85
2022/04/08 00:30:01;;;;;;;3.83;0.65;;;;;;;2.81;100.00;97976.59;4997264;28;20037;-84
2022/04/08 00:32:27;;;;;;;3.60;1.08;;;;;;;2.80;100.00;97987.31;5013135;28;20021;-85
2022/04/08 00:34:53;;;;;;;5.72;0.90;;;;;;;2.81;100.00;97996.84;4997393;28;20489;-85
2022/04/08 00:37:18;;;;;;;7.07;1.17;;;;;;;2.88;100.00;98005.66;4997267;28;20029;-84
2022/04/08 00:39:44;;;;;;;7.15;0.77;;;;;;;2.86;100.00;98003.22;5000743;28;20038;-84
2022/04/08 00:42:12;;;;;;;3.40;0.87;;;;;;;2.91;100.00;98021.94;5004924;28;21518;-84
2022/04/08 00:44:38;;;;;;;6.90;0.80;;;;;;;2.90;100.00;98035.28;4997037;28;20041;-84
2022/04/08 00:47:04;;;;;;;5.53;0.90;;;;;;;2.88;100.00;98021.47;5029682;28;20037;-85
2022/04/08 00:49:31;;;;;;;5.65;0.90;;;;;;;2.88;100.00;98040.75;4997217;28;20060;-85
2022/04/08 00:51:56;;;;;;;6.80;1.55;;;;;;;2.92;100.00;98049.91;4996612;28;20033;-84
2022/04/08 00:54:22;;;;;;;7.10;1.10;;;;;;;2.90;100.00;98059.84;5018274;28;20051;-84
2022/04/08 00:56:49;;;;;;;5.82;1.75;;;;;;;2.95;100.00;98070.66;5021904;28;20541;-84
2022/04/08 00:59:15;;;;;;;7.28;2.03;;;;;;;2.99;100.00;98076.38;5013187;28;20025;-84
2022/04/08 01:01:41;;;;;;;12.90;3.38;;;;;;;2.89;100.00;98065.28;5012676;28;20469;-85
2022/04/08 01:04:07;;;;;;;6.05;1.42;;;;;;;3.00;100.00;98099.13;4996350;28;20032;-84
2022/04/08 01:06:32;;;;;;;4.25;1.17;;;;;;;3.03;100.00;98098.75;5004693;28;20045;-84
2022/04/08 01:08:58;;;;;;;2.53;1.30;;;;;;;3.03;100.00;98095.31;5002056;28;20405;-84
2022/04/08 01:11:23;;;;;;;7.10;1.13;;;;;;;3.02;100.00;98096.28;5007592;23;20521;-79
2022/04/08 01:13:51;;;;;;;13.32;3.03;;;;;;;3.00;100.00;98088.59;5023875;28;20288;-79
2022/04/08 01:16:16;;;;;;;7.25;0.90;;;;;;;3.11;100.00;98103.13;5015956;28;20077;-78
2022/04/08 01:18:42;;;;;;;5.97;1.70;;;;;;;3.13;100.00;98101.13;5017298;28;20067;-79
2022/04/08 01:21:07;;;;;;;13.23;2.07;;;;;;;3.09;100.00;98107.75;5016488;28;20705;-79
2022/04/08 01:23:36;;;;;;;5.05;2.15;;;;;;;3.06;100.00;98123.94;5016067;28;20041;-79
2022/04/08 01:26:08;;;;;;;10.75;1.58;;;;;;;3.07;100.00;98133.50;4999970;28;20036;-79
2022/04/08 01:28:34;;;;;;;8.45;1.30;;;;;;;3.07;100.00;98142.22;5015438;28;20037;-79
2022/04/08 01:31:00;;;;;;;9.93;2.95;;;;;;;3.09;100.00;98149.94;5015748;28;20021;-78
2022/04/08 01:33:26;;;;;;;5.72;1.45;;;;;;;3.19;100.00;98160.25;5002694;28;20037;-78
2022/04/08 01:35:51;;;;;;;13.90;1.20;;;;;;;3.15;100.00;98168.50;4992518;28;20032;-78
2022/04/08 01:38:17;;;;;;;6.13;1.00;;;;;;;3.21;100.00;98174.91;5015400;28;20037;-78
2022/04/08 01:40:42;;;;;;;11.27;2.20;;;;;;;3.20;100.00;98175.88;4999549;28;20284;-79
2022/04/08 01:43:07;;;;;;;7.30;1.20;;;;;;;3.23;100.00;98182.63;5015301;28;20029;-79
2022/04/08 01:45:33;;;;;;;9.45;3.13;;;;;;;3.25;100.00;98186.72;4999519;28;20025;-79
2022/04/08 01:47:58;;;;;;;8.97;1.50;;;;;;;3.32;100.00;98200.81;5017120;28;20115;-79
2022/04/08 01:50:23;;;;;;;3.47;1.03;;;;;;;3.30;100.00;98210.75;5006075;28;20038;-78
2022/04/08 01:52:49;;;;;;;9.30;1.83;;;;;;;3.28;100.00;98207.47;4998930;28;20124;-79
2022/04/08 01:55:15;;;;;;;12.27;1.80;;;;;;;3.27;100.00;98211.09;5015513;28;20087;-79
2022/04/08 01:57:41;;;;;;;7.20;1.50;;;;;;;3.30;100.00;98208.13;5015297;28;20045;-79
2022/04/08 02:00:08;;;;;;;;;;;;;;;3.35;100.00;98228.69;4999500;28;20394;-79
2022/04/08 02:02:38;;;;;;;15.63;2.13;;;;;;;3.35;100.00;98212.84;5015374;28;20345;-79
2022/04/08 02:05:04;;;;;;;7.40;1.70;;;;;;;3.35;100.00;98224.22;5015519;28;20033;-78
2022/04/08 02:07:29;;;;;;;14.15;1.55;;;;;;;3.35;100.00;98226.88;5015147;28;20918;-77
2022/04/08 02:09:55;;;;;;;12.87;2.20;;;;;;;3.33;100.00;98226.22;5015313;28;20056;-78
2022/04/08 02:12:21;;;;;;;9.93;1.50;;;;;;;3.34;100.00;98237.56;4997452;28;20034;-79
2022/04/08 02:14:46;;;;;;;4.82;1.20;;;;;;;3.32;100.00;98237.75;5014910;28;20033;-78
2022/04/08 02:17:11;;;;;;;12.07;1.37;;;;;;;3.33;100.00;98249.13;4998576;28;20029;-78
2022/04/08 02:19:37;;;;;;;9.48;2.10;;;;;;;3.38;100.00;98258.16;5008507;28;20041;-79
2022/04/08 02:22:03;;;;;;;7.43;1.40;;;;;;;3.41;100.00;98258.78;5036127;28;20091;-79
2022/04/08 02:24:29;;;;;;;14.20;2.80;;;;;;;3.38;100.00;98268.69;5018395;28;20292;-79
2022/04/08 02:26:55;;;;;;;11.40;1.75;;;;;;;3.35;100.00;98271.69;4999090;28;20025;-78
2022/04/08 02:29:20;;;;;;;7.57;2.00;;;;;;;3.38;100.00;98281.88;5017946;28;20114;-79
2022/04/08 02:31:46;;;;;;;13.65;1.65;;;;;;;3.38;100.00;98276.59;5017302;28;20057;-79
2022/04/08 02:34:11;;;;;;;12.40;2.75;;;;;;;3.40;100.00;98286.19;5001877;28;20474;-79
2022/04/08 02:36:40;;;;;;;11.27;2.57;;;;;;;3.42;100.00;98286.78;5001731;28;20475;-77
2022/04/08 02:39:06;;;;;;;13.43;2.05;;;;;;;3.43;100.00;98296.38;5000868;28;20045;-78
2022/04/08 02:41:32;;;;;;;10.55;2.22;;;;;;;3.46;100.00;98293.38;5009206;28;20032;-78
2022/04/08 02:43:57;;;;;;;9.00;2.63;;;;;;;3.42;100.00;98281.53;5000441;28;20038;-78
2022/04/08 02:46:22;;;;;;;20.03;2.30;;;;;;;3.45;100.00;98283.81;5016532;28;20074;-78
2022/04/08 02:48:48;;;;;;;13.43;2.17;;;;;;;3.49;100.00;98285.94;5017273;28;20079;-79
2022/04/08 02:51:13;;;;;;;11.57;1.37;;;;;;;3.40;100.00;98268.53;5034689;28;20486;-79
2022/04/08 02:53:38;;;;;;;7.13;1.57;;;;;;;3.48;100.00;98268.44;5017470;28;20092;-78
2022/04/08 02:56:04;;;;;;;13.10;2.00;;;;;;;3.44;100.00;98259.28;5017054;28;20032;-78
2022/04/08 02:58:29;;;;;;;15.03;2.20;;;;;;;3.50;100.00;98247.19;5016623;28;20080;-79
2022/04/08 03:00:58;;;;;;;16.17;1.83;;;;;;;3.43;100.00;98256.81;5016949;28;20123;-77
2022/04/08 03:03:26;;;;;;;12.73;1.92;;;;;;;3.39;100.00;98240.50;5016320;28;20492;-78
2022/04/08 03:05:51;;;;;;;12.02;2.88;;;;;;;3.45;100.00;98231.06;5009379;23;20432;-78
2022/04/08 03:08:16;;;;;;;17.85;2.55;;;;;;;3.36;100.00;98225.03;5024426;28;20123;-80
2022/04/08 03:10:43;;;;;;;14.63;2.70;;;;;;;3.44;100.00;98227.63;5020759;28;20059;-80
2022/04/08 03:13:09;;;;;;;16.98;3.30;;;;;;;3.44;100.00;98210.94;5022425;28;20124;-79
2022/04/08 03:15:34;;;;;;;13.40;2.95;;;;;;;3.42;100.00;98213.78;5007584;28;20159;-80
2022/04/08 03:17:59;;;;;;;16.97;2.47;;;;;;;3.44;100.00;98216.22;5019136;28;20078;-78
2022/04/08 03:20:25;;;;;;;13.40;2.20;;;;;;;3.36;100.00;98188.94;5007551;28;20033;-78
2022/04/08 03:22:50;;;;;;;12.00;2.10;;;;;;;3.37;100.00;98180.03;5008530;28;20037;-77
2022/04/08 03:25:16;;;;;;;16.17;3.00;;;;;;;3.26;100.00;98183.09;5021618;28;20041;-77
2022/04/08 03:27:41;;;;;;;13.23;2.93;;;;;;;3.25;100.00;98165.63;5039914;28;20077;-80
2022/04/08 03:30:07;;;;;;;15.30;3.93;;;;;;;3.28;100.00;98159.19;5005506;28;20293;-79
2022/04/08 03:32:32;;;;;;;15.48;1.90;;;;;;;3.21;100.00;98153.81;5008516;28;20127;-79
2022/04/08 03:34:58;;;;;;;16.17;2.13;;;;;;;3.15;100.00;98165.06;5010325;28;20072;-78
2022/04/08 03:37:26;;;;;;;16.50;2.20;;;;;;;3.22;100.00;98155.44;5014632;28;20071;-80
2022/04/08 03:39:53;;;;;;;14.07;2.45;;;;;;;3.19;100.00;98124.16;5002309;28;20029;-79
2022/04/08 03:42:18;;;;;;;;;;;;;;;3.16;100.00;98114.78;5008313;28;20486;-79
2022/04/08 03:44:44;;;;;;;14.15;2.42;;;;;;;3.08;100.00;98116.69;5016519;28;19919;-78
2022/04/08 03:47:09;;;;;;;17.63;2.67;;;;;;;3.11;100.00;98087.31;5005815;28;20037;-79
2022/04/08 03:49:36;;;;;;;10.13;2.50;;;;;;;3.01;100.00;98078.84;5010752;28;20044;-77
2022/04/08 03:52:04;;;;;;;13.35;2.20;;;;;;;2.96;100.00;98109.19;4995030;28;20446;-80
2022/04/08 03:54:30;;;;;;;14.35;2.25;;;;;;;2.82;100.00;98133.69;5021188;28;20010;-77
2022/04/08 03:56:55;;;;;;;14.02;3.22;;;;;;;2.75;100.00;98153.84;5021119;28;20684;-79
2022/04/08 03:59:22;;;;;;;16.42;1.88;;;;;;;2.87;100.00;98156.88;5021243;28;20029;-78
2022/04/08 04:01:47;;;;;;;;;;;;;;;2.83;100.00;98177.47;5024547;28;20123;-80
2022/04/08 04:04:13;;;;;;;23.45;2.97;;;;;;;2.86;100.00;98153.44;5015143;28;19909;-80
2022/04/08 04:06:38;;;;;;;19.73;3.30;;;;;;;2.87;99.58;98110.25;5006975;28;20026;-81
2022/04/08 04:09:04;;;;;;;12.67;1.90;;;;;;;2.84;100.00;98123.81;5008672;28;20044;-79
2022/04/08 04:11:29;;;;;;;18.35;2.97;;;;;;;2.80;98.28;98098.78;5018930;28;20283;-79
2022/04/08 04:13:55;;;;;;;16.00;1.83;;;;;;;2.87;97.38;98094.44;5006938;28;20033;-76
2022/04/08 04:16:20;;;;;;;8.82;2.22;;;;;;;2.84;97.15;98092.19;5000107;28;20029;-77
2022/04/08 04:18:46;;;;;;;16.38;3.30;;;;;;;2.80;97.22;98104.06;5007951;28;20107;-79
2022/04/08 04:21:12;;;;;;;16.13;2.57;;;;;;;2.75;98.20;98122.22;5006883;28;20040;-79
2022/04/08 04:23:38;;;;;;;18.40;2.30;;;;;;;2.65;100.00;98161.97;5007628;28;20267;-80
2022/04/08 04:26:03;;;;;;;14.18;2.25;;;;;;;2.59;100.00;98201.38;5009367;28;20103;-78
2022/04/08 04:28:32;;;;;;;12.13;3.83;;;;;;;2.60;100.00;98230.19;5009001;28;20028;-79
2022/04/08 04:31:03;;;;;;;14.43;2.15;;;;;;;2.56;100.00;98257.03;5007225;28;20053;-79
2022/04/08 04:33:29;;;;;;;22.48;3.05;;;;;;;2.58;100.00;98253.25;5002128;28;20040;-80
2022/04/08 04:35:55;;;;;;;11.00;2.40;;;;;;;2.53;100.00;98280.09;5018880;28;20090;-79
2022/04/08 04:38:21;;;;;;;18.23;1.95;;;;;;;2.52;100.00;98269.72;5005233;28;20037;-77
2022/04/08 04:40:46;;;;;;;14.35;2.63;;;;;;;2.48;100.00;98285.06;5014101;28;20112;-79
2022/04/08 04:43:11;;;;;;;15.47;2.53;;;;;;;2.61;100.00;98294.22;5004575;28;20127;-78
2022/04/08 04:45:38;;;;;;;20.07;3.37;;;;;;;2.64;100.00;98292.03;5002653;28;20043;-79
2022/04/08 04:48:10;;;;;;;19.85;3.38;;;;;;;2.66;100.00;98289.25;4995501;28;20037;-81
2022/04/08 04:50:36;;;;;;;15.20;2.78;;;;;;;2.65;100.00;98288.44;5003464;28;20037;-77
2022/04/08 04:53:02;;;;;;;17.55;2.53;;;;;;;2.68;100.00;98305.72;5021696;28;20044;-80
2022/04/08 04:55:28;;;;;;;17.83;2.92;;;;;;;2.62;100.00;98314.28;5023306;28;20533;-79
2022/04/08 04:57:54;;;;;;;6.80;1.65;;;;;;;2.65;100.00;98327.94;5006632;28;20032;-77
2022/04/08 05:00:19;;;;;;;14.80;1.97;;;;;;;2.68;100.00;98327.59;5000335;28;20030;-80
2022/04/08 05:02:46;;;;;;;21.38;2.95;;;;;;;2.71;100.00;98329.88;5020208;28;20521;-76
2022/04/08 05:05:11;;;;;;;13.82;2.42;;;;;;;2.72;100.00;98341.28;5006062;28;20555;-81
2022/04/08 05:07:37;;;;;;;14.27;2.30;;;;;;;2.84;100.00;98331.97;5000386;28;20065;-80
2022/04/08 05:10:04;;;;;;;14.57;2.78;;;;;;;2.89;100.00;98329.66;5002643;28;20040;-79
2022/04/08 05:12:30;;;;;;;15.85;3.20;;;;;;;2.90;100.00;98333.09;5019975;28;20497;-77
2022/04/08 05:14:56;;;;;;;11.25;2.42;;;;;;;2.85;100.00;98332.81;5022249;28;20032;-79
2022/04/08 05:17:21;;;;;;;16.02;2.50;;;;;;;2.89;100.00;98337.56;5013746;28;20120;-80
2022/04/08 05:19:46;;;;;;;8.57;1.60;;;;;;;2.91;100.00;98353.22;4995373;28;20112;-79
2022/04/08 05:22:12;;;;;;;25.23;2.53;;;;;;;2.88;100.00;98359.66;5005171;28;20036;-81
2022/04/08 05:24:37;;;;;;;13.33;3.00;;;;;;;2.83;100.00;98361.94;5019425;28;20036;-81
2022/04/08 05:27:03;;;;;;;12.67;2.70;;;;;;;2.81;100.00;98385.03;5004770;28;20036;-79
2022/04/08 05:29:29;;;;;;;17.50;2.53;;;;;;;2.72;100.00;98393.97;5022000;28;20037;-79
2022/04/08 05:31:54;;;;;;;17.07;2.90;;;;;;;2.75;100.00;98399.69;5020071;28;20432;-81
2022/04/08 05:34:19;;;;;;;16.57;3.97;;;;;;;2.78;100.00;98400.34;5000874;28;20042;-78
2022/04/08 05:36:45;;;;;;;19.90;3.40;;;;;;;2.72;100.00;98391.34;5001073;28;20064;-76
2022/04/08 05:39:10;;;;;;;16.87;2.97;;;;;;;2.79;100.00;98405.47;5021451;28;20109;-81
2022/04/08 05:41:36;;;;;;;12.50;1.90;;;;;;;2.85;100.00;98417.13;5003306;28;20037;-79
2022/04/08 05:44:01;;;;;;;19.90;3.47;;;;;;;2.92;100.00;98412.81;5006624;28;20064;-80
2022/04/08 05:46:26;;;;;;;16.17;2.10;;;;;;;2.96;100.00;98424.69;5006961;28;20033;-81
2022/04/08 05:48:52;;;;;;;20.23;2.60;;;;;;;3.17;100.00;98421.47;4996365;28;20042;-81
2022/04/08 05:51:17;;;;;;;11.00;2.23;;;;;;;3.45;100.00;98421.81;5007160;28;20031;-79
2022/04/08 05:53:42;;;;;;;13.83;3.60;;;;;;;3.57;100.00;98385.31;5023428;28;20064;-82
2022/04/08 05:56:08;;;;;;;15.67;4.90;;;;;;;3.66;100.00;98357.03;5029917;28;20026;-79
2022/04/08 05:58:33;;;;;;;11.43;2.22;;;;;;;3.67;100.00;98361.31;5030458;28;20095;-79
2022/04/08 06:00:59;;;;;;;14.53;1.80;;;;;;;4.23;96.53;98328.28;5009895;28;20786;-80
2022/04/08 06:03:25;;;;;;;20.67;3.53;;;;;;;4.96;93.65;98324.97;5013348;28;20042;-77
2022/04/08 06:05:51;;;;;;;11.02;2.00;;;;;;;5.16;89.21;98227.34;5026634;28;20033;-80
2022/04/08 06:08:16;;;;;;;11.65;1.77;;;;;;;5.96;84.94;98197.03;5013804;28;20166;-80
2022/04/08 06:10:41;;;;;;;9.83;1.80;;;;;;;6.58;82.35;98179.38;5026723;28;20030;-78
2022/04/08 06:13:07;;;;;;;15.63;2.50;;;;;;;6.85;78.52;98089.25;5028708;28;20291;-81
2022/04/08 06:15:32;;;;;;;14.57;2.47;;;;;;;6.26;77.70;98025.38;5011506;28;20036;-80
2022/04/08 06:17:58;;;;;;;19.60;2.63;;;;;;;6.68;76.64;98076.41;5019505;28;20041;-77
2022/04/08 06:20:24;;;;;;;12.68;2.35;;;;;;;7.17;73.88;98046.00;5013626;28;20017;-81
2022/04/08 06:22:50;;;;;;;;;;;;;;;7.38;72.03;98030.84;5010333;28;20250;-77
2022/04/08 06:25:16;;;;;;;;;;;;;;;7.30;71.11;97972.66;5022015;28;20333;-80
2022/04/08 06:27:44;;;;;;;13.45;2.88;;;;;;;7.52;70.35;98008.53;5026990;28;19966;-80
2022/04/08 06:30:11;;;;;;;11.75;1.77;;;;;;;7.46;70.38;97996.09;5013009;28;20100;-76
2022/04/08 06:32:38;;;;;;;14.38;2.78;;;;;;;7.36;70.52;98011.66;5010969;28;20051;-80
2022/04/08 06:35:03;;;;;;;;;;;;;;;7.79;69.90;98064.22;5029319;28;20104;-80
2022/04/08 06:37:29;;;;;;;10.00;2.45;;;;;;;7.66;69.99;98046.50;5028909;28;20464;-80
2022/04/08 06:39:55;;;;;;;9.87;1.53;;;;;;;7.87;69.84;98084.44;5027206;28;20033;-80
2022/04/08 06:42:21;;;;;;;;;;;;;;;7.68;68.07;97959.47;5030434;28;20486;-78
2022/04/08 06:44:47;;;;;;;;;;;;;;;7.84;68.09;97987.34;5011100;28;20023;-77
2022/04/08 06:47:12;;;;;;;;;;;;;;;7.90;66.92;97949.31;5035213;28;19920;-80
2022/04/08 06:49:43;;;;;;;11.70;2.17;;;;;;;7.55;67.27;97931.13;5007514;28;19920;-80
2022/04/08 06:52:09;;;;;;;10.43;2.72;;;;;;;7.81;67.54;97993.91;5028930;28;20108;-80
2022/04/08 06:54:34;;;;;;;10.00;1.77;;;;;;;7.86;66.88;97973.88;5011405;28;20145;-78
2022/04/08 06:57:00;;;;;;;9.17;1.77;;;;;;;7.95;66.25;97978.72;5010697;28;20488;-76
2022/04/08 06:59:25;;;;;;;6.57;1.95;;;;;;;7.62;66.43;97933.75;5013060;28;20025;-79
2022/04/08 07:01:51;;;;;;;11.23;2.30;;;;;;;7.50;66.95;97970.78;5029174;28;20040;-77
2022/04/08 07:04:16;;;;;;;15.43;2.30;;;;;;;7.76;67.12;98006.22;5028490;28;20274;-79
2022/04/08 07:06:42;;;;;;;11.53;2.10;;;;;;;7.39;66.49;97921.78;5006380;28;20040;-78
2022/04/08 07:09:07;;;;;;;14.87;3.17;;;;;;;7.47;67.32;98013.69;5024570;28;20037;-78
2022/04/08 07:11:32;;;;;;;18.57;3.10;;;;;;;7.97;67.53;98074.16;5023627;28;20426;-78
2022/04/08 07:13:58;;;;;;;13.67;3.33;;;;;;;7.94;66.83;98046.19;5007692;28;20087;-79
2022/04/08 07:16:23;;;;;;;14.20;2.83;;;;;;;7.98;66.06;97999.56;5009505;28;20040;-77
2022/04/08 07:18:49;;;;;;;11.60;1.97;;;;;;;7.40;65.82;97899.56;5006360;28;20356;-80
2022/04/08 07:21:14;;;;;;;9.43;2.47;;;;;;;7.36;67.06;97970.00;5009301;28;20033;-78
2022/04/08 07:23:39;;;;;;;13.93;2.80;;;;;;;7.18;67.78;97985.78;5041339;28;20037;-76
2022/04/08 07:26:05;;;;;;;22.93;3.57;;;;;;;7.46;67.91;98057.16;5008223;28;20041;-76
2022/04/08 07:28:32;;;;;;;17.03;2.73;;;;;;;7.56;67.39;98015.06;5008637;28;20028;-79
2022/04/08 07:30:57;;;;;;;14.95;1.95;;;;;;;7.60;67.43;98053.44;5006766;28;20405;-79
2022/04/08 07:33:23;;;;;;;13.40;2.35;;;;;;;7.70;66.34;97996.41;5009541;28;20042;-79
2022/04/08 07:35:48;;;;;;;8.87;2.17;;;;;;;7.84;65.60;97982.03;5021843;28;20045;-80
2022/04/08 07:38:14;;;;;;;13.77;1.90;;;;;;;8.00;64.01;97972.78;5009191;28;20021;-80
2022/04/08 07:40:39;;;;;;;11.30;1.73;;;;;;;7.72;61.90;97813.78;5006101;28;20032;-76
2022/04/08 07:43:05;;;;;;;10.97;1.40;;;;;;;7.67;62.31;97827.69;5007345;28;20068;-78
2022/04/08 07:45:30;;;;;;;7.90;1.23;;;;;;;7.64;62.37;97867.97;5018380;28;20030;-79
2022/04/08 07:47:58;;;;;;;8.83;2.60;;;;;;;8.01;62.33;97943.34;5001667;28;20014;-79
2022/04/08 07:50:25;;;;;;;10.25;1.63;;;;;;;8.33;61.61;97948.63;5025013;28;20470;-80
2022/04/08 07:52:50;;;;;;;;;;;;;;;8.46;62.31;97992.94;5025240;28;20024;-79
2022/04/08 07:55:20;;;;;;;;;;;;;;;8.58;61.50;97974.44;5005092;28;20423;-79
2022/04/08 07:57:50;;;;;;;11.75;1.80;;;;;;;8.60;60.84;97943.13;5005159;28;19986;-79
2022/04/08 08:00:19;;;;;;;10.57;2.08;;;;;;;8.90;60.64;97996.47;5033220;28;20048;-78
2022/04/08 08:02:44;;;;;;;11.90;2.58;;;;;;;8.93;59.30;97878.16;5005641;28;20041;-76
2022/04/08 08:05:10;;;;;;;13.20;3.15;;;;;;;8.20;58.72;97736.94;5024614;28;20037;-77
2022/04/08 08:07:51;;;;;;;11.00;1.50;;;;;;;8.65;59.04;97890.09;5006390;28;20037;-78
2022/04/08 08:10:20;;;;;;;7.85;1.90;;;;;;;9.21;58.58;97954.81;5019870;28;20429;-79
2022/04/08 08:12:46;;;;;;;17.42;2.42;;;;;;;9.51;57.75;97976.19;5009122;28;20050;-78
2022/04/08 08:15:11;;;;;;;6.97;2.03;;;;;;;9.13;57.66;97884.06;5007770;28;20032;-78
2022/04/08 08:17:38;;;;;;;14.77;2.30;;;;;;;8.66;56.69;97702.88;5005350;28;20021;-76
2022/04/08 08:20:05;;;;;;;7.45;1.55;;;;;;;7.88;57.49;97651.22;5006557;28;20030;-78
2022/04/08 08:22:30;;;;;;;12.85;2.38;;;;;;;7.86;59.71;97844.53;5006355;28;20046;-79
2022/04/08 08:24:55;;;;;;;5.80;1.00;;;;;;;8.43;63.01;98097.09;5005900;28;20041;-78
2022/04/08 08:27:21;;;;;;;8.67;1.67;;;;;;;9.16;61.15;98107.19;5025084;28;20049;-78
2022/04/08 08:29:46;;;;;;;11.50;1.97;;;;;;;9.27;62.46;98156.25;5021415;28;20037;-79
2022/04/08 08:32:11;;;;;;;12.50;1.53;;;;;;;8.12;58.74;97707.97;5039965;28;20024;-79
2022/04/08 08:34:37;;;;;;;9.93;1.50;;;;;;;7.06;57.00;97505.44;5004766;28;20033;-78
2022/04/08 08:37:02;;;;;;;13.37;2.00;;;;;;;6.98;57.09;97559.59;5004804;28;20081;-79
2022/04/08 08:39:28;;;;;;;16.60;1.70;;;;;;;7.42;58.10;97766.59;5021597;28;20033;-78
2022/04/08 08:41:55;;;;;;;9.55;1.85;;;;;;;7.08;57.61;97659.91;5002634;28;20270;-77
2022/04/08 08:44:21;;;;;;;8.52;1.73;;;;;;;6.79;58.93;97671.09;5005924;28;20029;-80
2022/04/08 08:46:48;;;;;;;10.90;1.70;;;;;;;6.47;58.72;97626.03;5002685;28;20382;-80
2022/04/08 08:49:14;;;;;;;7.43;1.52;;;;;;;6.49;58.39;97632.75;5022194;28;20032;-77
2022/04/08 08:51:42;;;;;;;10.15;1.77;;;;;;;6.55;59.56;97716.72;5002642;28;20048;-76
2022/04/08 08:54:07;;;;;;;6.97;1.38;;;;;;;6.63;59.02;97720.97;5002051;28;20042;-78
2022/04/08 08:56:32;;;;;;;11.77;1.73;;;;;;;6.85;59.79;97826.72;5005150;28;20032;-78
2022/04/08 08:58:58;;;;;;;8.43;1.70;;;;;;;7.97;57.44;97920.88;5002597;28;20033;-78
2022/04/08 09:01:23;;;;;;;14.47;2.20;;;;;;;8.27;55.23;97728.88;5005437;28;20029;-79
2022/04/08 09:03:48;;;;;;;6.07;1.30;;;;;;;8.06;54.52;97700.09;5001993;28;20532;-78
2022/04/08 09:06:16;;;;;;;7.93;1.10;;;;;;;8.76;54.00;97825.53;5043266;23;20068;-80
2022/04/08 09:08:42;;;;;;;13.30;1.85;;;;;;;9.05;54.16;97852.41;5027967;28;20047;-81
2022/04/08 09:11:07;;;;;;;14.35;2.85;;;;;;;8.47;55.38;97757.94;5031747;28;20036;-81
2022/04/08 09:13:44;;;;;;;11.63;2.15;;;;;;;8.30;56.09;97799.41;5017358;28;20029;-81
2022/04/08 09:16:12;;;;;;;13.05;2.38;;;;;;;8.01;59.06;97927.41;5039494;28;20065;-78
2022/04/08 09:18:48;;;;;;;19.27;2.35;;;;;;;7.37;61.08;97917.72;5023009;28;20402;-81
2022/04/08 09:21:21;;;;;;;10.20;1.95;;;;;;;8.42;62.08;98154.72;5040424;28;20024;-81
2022/04/08 09:23:47;;;;;;;13.18;1.88;;;;;;;8.53;60.12;98064.69;5023156;28;20063;-80
2022/04/08 09:26:14;;;;;;;6.40;2.00;;;;;;;8.56;58.18;97947.25;5040084;28;20112;-79
2022/04/08 09:28:41;;;;;;;11.60;1.50;;;;;;;9.55;55.17;97971.22;5041262;28;20250;-81
2022/04/08 09:31:22;;;;;;;11.68;2.38;;;;;;;10.03;51.20;97746.50;5060085;28;20110;-81
2022/04/08 09:33:53;;;;;;;5.72;1.30;;;;;;;10.00;50.97;97738.97;5054864;28;20044;-81
2022/04/08 09:36:35;;;;;;;11.45;3.20;;;;;;;9.28;50.77;97583.66;5021282;28;20037;-79
2022/04/08 09:39:07;;;;;;;11.77;2.17;;;;;;;9.98;52.03;97845.81;5042701;28;20087;-82
2022/04/08 09:41:43;;;;;;;13.13;3.78;;;;;;;9.83;51.94;97805.44;5020712;28;20039;-82
2022/04/08 09:44:11;;;;;;;6.20;1.45;;;;;;;9.83;52.51;97781.47;5022601;28;20078;-80
2022/04/08 09:46:38;;;;;;;12.13;2.17;;;;;;;9.79;52.98;97844.28;5018239;28;20025;-82
2022/04/08 09:49:06;;;;;;;6.75;1.58;;;;;;;10.54;51.88;97913.03;5039900;28;20029;-80
2022/04/08 09:51:40;;;;;;;8.43;1.33;;;;;;;11.25;50.13;97896.94;5022983;28;20017;-81
2022/04/08 09:54:08;;;;;;;10.43;1.45;;;;;;;11.69;49.19;97868.66;5040058;28;20584;-79
2022/04/08 09:56:36;;;;;;;7.47;1.63;;;;;;;11.01;47.37;97616.69;5022077;28;20068;-82
2022/04/08 09:59:19;;;;;;;7.97;1.30;;;;;;;11.54;48.00;97753.47;5023641;28;20108;-80
2022/04/08 10:01:46;;;;;;;10.93;1.30;;;;;;;11.22;48.65;97763.91;5040174;28;20592;-80
2022/04/08 10:04:22;;;;;;;8.77;2.42;;;;;;;11.30;48.07;97732.25;5024866;28;20024;-79
2022/04/08 10:06:48;;;;;;;7.57;1.25;;;;;;;10.60;48.83;97599.16;5032006;28;20045;-81
2022/04/08 10:09:15;;;;;;;11.48;1.77;;;;;;;10.56;49.52;97701.00;5027979;28;20032;-79
2022/04/08 10:12:02;;;;;;;6.13;1.40;;;;;;;10.81;46.68;97537.06;5045702;28;20047;-81
2022/04/08 10:14:46;;;;;;;3.38;1.52;;;;;;;11.27;47.04;97682.00;5031496;28;20036;-81
2022/04/08 10:17:11;;;;;;;6.18;1.15;;;;;;;11.88;45.23;97658.09;5036136;28;20044;-81
2022/04/08 10:19:36;;;;;;;8.77;2.23;;;;;;;12.16;44.82;97670.50;5015345;28;20037;-81
2022/04/08 10:22:02;;;;;;;3.60;1.00;;;;;;;11.89;45.39;97637.53;5029706;28;20339;-80
2022/04/08 10:24:30;;;;;;;7.10;1.70;;;;;;;11.88;43.95;97526.31;5018249;28;20028;-81
2022/04/08 10:27:11;;;;;;;9.65;1.48;;;;;;;11.60;43.43;97395.28;5056967;28;20072;-80
2022/04/08 10:29:37;;;;;;;3.40;1.10;;;;;;;11.30;44.01;97491.09;5021989;28;20051;-81
2022/04/08 10:32:11;;;;;;;3.92;0.82;;;;;;;10.52;44.03;97294.41;5019998;28;20025;-81
2022/04/08 10:34:37;;;;;;;5.60;1.70;;;;;;;10.97;43.88;97410.81;5020607;28;20041;-81
2022/04/08 10:37:15;;;;;;;11.73;1.93;;;;;;;10.86;44.45;97454.41;5033175;28;20049;-80
2022/04/08 10:39:42;;;;;;;9.05;2.28;;;;;;;11.53;44.82;97624.44;5038292;28;20474;-79
2022/04/08 10:42:20;;;;;;;7.85;1.50;;;;;;;12.38;45.57;97784.75;5033148;28;20025;-81
2022/04/08 10:44:45;;;;;;;7.05;1.92;;;;;;;11.75;45.78;97650.41;5057713;28;20507;-82
2022/04/08 10:47:16;;;;;;;9.13;1.88;;;;;;;11.94;45.83;97707.09;5040592;28;20040;-81
2022/04/08 10:49:58;;;;;;;6.18;1.00;;;;;;;12.41;44.71;97736.13;5031472;28;20044;-82
2022/04/08 10:52:26;;;;;;;7.20;1.20;;;;;;;12.50;44.78;97697.13;5024408;28;20071;-82
2022/04/08 10:55:09;;;;;;;6.10;2.50;;;;;;;11.45;45.52;97568.78;5027580;28;20085;-82
2022/04/08 10:57:36;;;;;;;5.07;1.38;;;;;;;11.58;45.35;97580.97;5028485;28;20091;-80
2022/04/08 11:00:10;;;;;;;;;;;;;;;11.48;45.09;97535.41;5028812;28;20025;-81
2022/04/08 11:02:41;;;;;;;7.45;1.80;;;;;;;11.26;44.04;97409.84;5028935;28;19924;-81
2022/04/08 11:05:08;;;;;;;4.63;1.20;;;;;;;11.61;43.04;97417.47;5030017;28;20037;-82
2022/04/08 11:07:34;;;;;;;5.10;0.95;;;;;;;11.67;42.57;97383.63;5017938;28;20338;-80
2022/04/08 11:10:00;;;;;;;3.33;1.33;;;;;;;11.08;42.11;97259.59;5030352;28;20037;-79
2022/04/08 11:12:28;;;;;;;6.93;0.88;;;;;;;12.01;42.98;97582.06;5022504;28;20021;-81
2022/04/08 11:14:58;;;;;;;10.35;1.23;;;;;;;12.38;42.90;97618.88;5038574;28;20055;-81
2022/04/08 11:17:33;;;;;;;11.18;1.25;;;;;;;11.99;42.17;97455.88;5018640;28;20442;-80
2022/04/08 11:19:59;;;;;;;5.72;1.20;;;;;;;12.29;42.30;97483.97;5057702;28;20290;-82
2022/04/08 11:22:25;;;;;;;5.00;1.13;;;;;;;12.64;42.15;97588.69;5038575;28;20028;-79
2022/04/08 11:24:56;;;;;;;3.67;0.98;;;;;;;12.20;42.23;97488.97;5039031;28;20457;-82
2022/04/08 11:27:22;;;;;;;5.65;1.15;;;;;;;12.04;42.43;97490.69;5024982;28;20506;-81
2022/04/08 11:29:47;;;;;;;3.70;0.60;;;;;;;11.91;42.25;97437.59;5031890;28;20056;-82
2022/04/08 11:32:13;;;;;;;5.60;1.00;;;;;;;12.71;42.06;97611.72;5023278;28;20155;-82